createdAt,value
2019-01-15T00:03:05.824Z,101254.70
2019-01-15T00:08:37.509Z,101258.88
2019-01-15T00:11:06.846Z,101255.36
2019-01-15T00:13:36.482Z,101265.11
2019-01-15T00:19:07.499Z,101257.89
2019-01-15T00:21:38.795Z,101267.27
2019-01-15T00:24:08.142Z,101261.09
2019-01-15T00:26:37.635Z,101264.68
2019-01-15T00:29:06.968Z,101271.26
2019-01-15T00:31:36.632Z,101265.46
2019-01-15T00:37:06.504Z,101257.89
2019-01-15T00:39:35.837Z,101263.80
2019-01-15T00:42:05.175Z,101265.59
2019-01-15T00:44:34.654Z,101268.59
2019-01-15T00:47:23.596Z,101263.21
2019-01-15T00:49:52.924Z,101261.03
2019-01-15T00:52:22.777Z,101261.88
2019-01-15T00:54:52.116Z,101257.89
2019-01-15T00:57:21.632Z,101256.56
2019-01-15T00:59:50.958Z,101248.58
2019-01-15T01:02:20.511Z,101258.44
2019-01-15T01:05:49.006Z,101258.55
2019-01-15T01:08:18.641Z,101268.30
2019-01-15T01:10:48.105Z,101274.50
2019-01-15T01:13:17.836Z,101278.93
2019-01-15T01:15:47.166Z,101281.97
2019-01-15T01:18:17.132Z,101289.81
2019-01-15T01:20:46.617Z,101285.81
2019-01-15T01:23:15.963Z,101284.97
2019-01-15T01:25:45.561Z,101291.61
2019-01-15T01:28:15.206Z,101282.30
2019-01-15T01:30:45.278Z,101284.08
2019-01-15T01:33:14.902Z,101283.56
2019-01-15T01:35:44.229Z,101296.36
2019-01-15T01:38:14.209Z,101289.19
2019-01-15T01:41:02.962Z,101287.80
2019-01-15T01:43:32.879Z,101290.86
2019-01-15T01:46:02.474Z,101285.61
2019-01-15T01:48:31.829Z,101285.61
2019-01-15T01:51:01.154Z,101280.56
2019-01-15T01:53:30.701Z,101272.10
2019-01-15T01:56:00.093Z,101273.05
2019-01-15T01:58:29.973Z,101269.51
2019-01-15T02:01:13.002Z,101256.20
2019-01-15T02:03:43.304Z,101261.02
2019-01-15T02:06:12.928Z,101263.16
2019-01-15T02:08:42.883Z,101250.64
2019-01-15T02:11:12.508Z,101246.20
2019-01-15T02:13:41.855Z,101242.22
2019-01-15T02:16:12.058Z,101242.96
2019-01-15T02:18:41.935Z,101254.83
2019-01-15T02:21:12.997Z,101247.63
2019-01-15T02:23:42.882Z,101249.70
2019-01-15T02:26:12.214Z,101242.64
2019-01-15T02:28:41.823Z,101236.47
2019-01-15T02:31:12.039Z,101241.31
2019-01-15T02:33:41.674Z,101243.45
2019-01-15T02:36:12.146Z,101244.34
2019-01-15T02:38:41.824Z,101243.01
2019-01-15T02:41:30.256Z,101240.80
2019-01-15T02:44:00.077Z,101243.68
2019-01-15T02:46:48.736Z,101228.93
2019-01-15T02:49:18.141Z,101228.93
2019-01-15T02:51:47.750Z,101224.87
2019-01-15T02:54:17.118Z,101230.27
2019-01-15T02:56:46.739Z,101225.05
2019-01-15T02:59:17.995Z,101227.13
2019-01-15T03:01:47.622Z,101229.27
2019-01-15T03:04:17.251Z,101235.33
2019-01-15T03:06:46.879Z,101239.25
2019-01-15T03:09:16.223Z,101231.16
2019-01-15T03:11:45.869Z,101228.41
2019-01-15T03:17:49.425Z,101233.55
2019-01-15T03:20:59.109Z,101227.42
2019-01-15T03:23:28.444Z,101232.38
2019-01-15T03:28:46.424Z,101231.38
2019-01-15T03:31:16.206Z,101230.45
2019-01-15T03:33:46.178Z,101225.05
2019-01-15T03:36:35.139Z,101222.20
2019-01-15T03:39:44.821Z,101222.20
2019-01-15T03:42:14.143Z,101218.54
2019-01-15T03:44:43.783Z,101220.75
2019-01-15T03:47:13.470Z,101222.94
2019-01-15T03:49:43.101Z,101210.73
2019-01-15T03:52:12.504Z,101217.13
2019-01-15T03:54:41.970Z,101217.13
2019-01-15T03:57:12.265Z,101215.35
2019-01-15T03:59:41.896Z,101212.21
2019-01-15T04:16:26.619Z,101201.28
2019-01-15T04:18:56.007Z,101213.92
2019-01-15T04:21:25.349Z,101219.13
2019-01-15T04:23:55.046Z,101209.70
2019-01-15T04:26:24.685Z,101202.45
2019-01-15T04:28:54.188Z,101203.37
2019-01-15T04:31:23.759Z,101202.48
2019-01-15T04:34:12.230Z,101199.83
2019-01-15T04:36:41.813Z,101198.86
2019-01-15T04:39:12.389Z,101200.11
2019-01-15T04:41:41.988Z,101198.38
2019-01-15T04:44:12.418Z,101191.12
2019-01-15T04:46:42.038Z,101183.54
2019-01-15T04:49:12.402Z,101181.80
2019-01-15T04:51:42.149Z,101176.96
2019-01-15T04:54:12.439Z,101175.44
2019-01-15T05:02:19.300Z,101173.09
2019-01-15T05:04:48.636Z,101168.63
2019-01-15T05:07:18.488Z,101168.51
2019-01-15T05:09:48.078Z,101163.51
2019-01-15T05:15:32.974Z,101148.26
2019-01-15T05:18:02.303Z,101143.25
2019-01-15T05:20:31.761Z,101144.14
2019-01-15T05:23:01.510Z,101140.55
2019-01-15T05:25:31.163Z,101124.48
2019-01-15T05:28:00.488Z,101137.41
2019-01-15T05:30:30.135Z,101133.00
2019-01-15T05:32:59.573Z,101132.16
2019-01-15T05:35:28.930Z,101130.67
2019-01-15T05:37:59.874Z,101130.14
2019-01-15T05:40:29.687Z,101123.56
2019-01-15T05:42:59.620Z,101119.89
2019-01-15T05:45:48.925Z,101103.91
2019-01-15T05:48:31.405Z,101091.59
2019-01-15T05:53:40.771Z,101105.11
2019-01-15T05:56:10.388Z,101101.52
2019-01-15T05:58:40.061Z,101100.19
2019-01-15T06:01:09.568Z,101112.91
2019-01-15T06:03:38.894Z,101120.33
2019-01-15T06:06:08.526Z,101115.36
2019-01-15T06:08:37.921Z,101108.62
2019-01-15T06:11:08.878Z,101094.37
2019-01-15T06:13:42.590Z,101084.64
2019-01-15T06:16:28.866Z,101081.17
2019-01-15T06:18:58.187Z,101072.33
2019-01-15T06:21:27.871Z,101082.42
2019-01-15T06:23:57.486Z,101065.11
2019-01-15T06:26:26.828Z,101063.45
2019-01-15T06:28:56.446Z,101074.59
2019-01-15T06:31:26.081Z,101067.85
2019-01-15T06:33:55.931Z,101068.73
2019-01-15T06:36:25.581Z,101069.27
2019-01-15T06:38:54.910Z,101068.86
2019-01-15T06:41:24.612Z,101070.64
2019-01-15T06:43:53.935Z,101068.06
2019-01-15T06:46:23.570Z,101073.87
2019-01-15T06:48:53.224Z,101067.61
2019-01-15T06:51:22.678Z,101071.53
2019-01-15T06:53:52.020Z,101065.11
2019-01-15T06:56:21.953Z,101068.66
2019-01-15T06:58:51.582Z,101075.31
2019-01-15T07:01:33.621Z,101089.04
2019-01-15T07:04:03.030Z,101095.63
2019-01-15T07:06:32.700Z,101088.03
2019-01-15T07:09:02.039Z,101092.02
2019-01-15T07:11:33.002Z,101084.03
2019-01-15T07:14:02.636Z,101081.81
2019-01-15T07:19:27.903Z,101082.83
2019-01-15T07:21:57.702Z,101078.38
2019-01-15T07:24:27.053Z,101073.05
2019-01-15T07:26:56.661Z,101074.22
2019-01-15T07:29:26.541Z,101079.83
2019-01-15T07:31:55.862Z,101073.97
2019-01-15T07:34:25.213Z,101069.00
2019-01-15T07:36:54.786Z,101064.48
2019-01-15T07:39:24.520Z,101069.36
2019-01-15T07:41:54.119Z,101068.88
2019-01-15T07:44:23.780Z,101075.25
2019-01-15T07:46:53.112Z,101074.05
2019-01-15T07:49:22.765Z,101067.22
2019-01-15T07:51:52.106Z,101056.96
2019-01-15T07:54:40.832Z,101074.92
2019-01-15T07:57:10.161Z,101046.48
2019-01-15T07:59:41.125Z,101057.55
2019-01-15T08:05:47.115Z,101042.90
2019-01-15T08:08:17.102Z,101048.09
2019-01-15T08:10:46.739Z,101041.20
2019-01-15T08:13:16.190Z,101045.12
2019-01-15T08:16:05.197Z,101041.92
2019-01-15T08:18:34.898Z,101044.81
2019-01-15T08:21:04.239Z,101044.77
2019-01-15T08:23:33.833Z,101045.08
2019-01-15T08:26:03.235Z,101030.64
2019-01-15T08:28:32.913Z,101034.41
2019-01-15T08:31:02.275Z,101022.27
2019-01-15T08:33:31.885Z,101024.80
2019-01-15T08:36:01.237Z,101032.63
2019-01-15T08:38:30.872Z,101033.20
2019-01-15T08:41:00.225Z,101030.30
2019-01-15T08:43:31.179Z,101039.95
2019-01-15T08:48:57.788Z,101036.03
2019-01-15T08:51:27.339Z,101033.27
2019-01-15T08:53:57.088Z,101021.91
2019-01-15T08:56:26.501Z,101025.77
2019-01-15T08:58:55.939Z,101025.20
2019-01-15T09:04:06.132Z,101024.13
2019-01-15T09:06:35.738Z,101034.67
2019-01-15T09:09:45.122Z,101033.25
2019-01-15T09:12:15.123Z,101038.50
2019-01-15T09:14:44.475Z,101027.06
2019-01-15T09:17:14.108Z,101035.28
2019-01-15T09:19:43.768Z,101036.56
2019-01-15T09:22:13.446Z,101031.53
2019-01-15T09:24:51.311Z,101034.95
2019-01-15T09:27:21.199Z,101034.72
2019-01-15T09:29:50.829Z,101033.96
2019-01-15T09:32:20.275Z,101029.08
2019-01-15T09:34:49.932Z,101033.02
2019-01-15T09:40:30.414Z,101026.16
2019-01-15T09:43:00.050Z,101024.20
2019-01-15T09:45:29.404Z,101024.20
2019-01-15T09:50:56.225Z,101016.64
2019-01-15T09:53:25.872Z,101019.16
2019-01-15T09:55:55.227Z,101011.54
2019-01-15T09:58:24.566Z,101012.33
2019-01-15T10:00:54.030Z,101000.61
2019-01-15T10:03:23.370Z,101002.00
2019-01-15T10:05:52.717Z,101009.38
2019-01-15T10:08:22.118Z,101011.05
2019-01-15T10:10:51.465Z,101004.28
2019-01-15T10:13:21.011Z,101004.98
2019-01-15T10:15:50.372Z,101011.50
2019-01-15T10:18:19.706Z,101011.72
2019-01-15T10:20:49.257Z,101001.72
2019-01-15T10:23:18.594Z,101001.47
2019-01-15T10:25:48.689Z,101004.38
2019-01-15T10:28:18.348Z,100994.84
2019-01-15T10:31:09.189Z,100989.34
2019-01-15T10:33:58.328Z,100987.91
2019-01-15T10:36:27.244Z,100987.20
2019-01-15T10:38:56.576Z,100987.20
2019-01-15T10:41:26.240Z,100986.70
2019-01-15T10:44:14.681Z,100983.94
2019-01-15T10:46:44.100Z,100982.84
2019-01-15T10:49:13.556Z,100979.67
2019-01-15T10:51:43.150Z,100990.30
2019-01-15T10:54:13.446Z,100992.59
2019-01-15T10:56:42.807Z,100980.26
2019-01-15T10:59:13.498Z,100971.66
2019-01-15T11:01:43.146Z,100974.07
2019-01-15T11:04:13.727Z,100971.79
2019-01-15T11:06:43.151Z,100966.99
2019-01-15T11:09:13.477Z,100967.32
2019-01-15T11:11:43.117Z,100967.32
2019-01-15T11:17:09.318Z,100951.08
2019-01-15T11:19:38.655Z,100949.09
2019-01-15T11:22:08.209Z,100950.95
2019-01-15T11:24:37.543Z,100948.52
2019-01-15T11:27:07.178Z,100947.47
2019-01-15T11:29:36.508Z,100937.61
2019-01-15T11:32:06.169Z,100932.27
2019-01-15T11:34:35.506Z,100925.02
2019-01-15T11:37:05.159Z,100929.88
2019-01-15T11:39:34.888Z,100933.44
2019-01-15T11:42:04.433Z,100928.94
2019-01-15T11:44:33.774Z,100917.19
2019-01-15T11:47:03.807Z,100912.16
2019-01-15T11:49:54.102Z,100902.89
2019-01-15T11:52:23.922Z,100902.89
2019-01-15T11:58:09.778Z,100899.95
2019-01-15T12:03:39.828Z,100893.87
2019-01-15T12:06:28.456Z,100890.14
2019-01-15T12:09:16.927Z,100888.25
2019-01-15T12:12:05.438Z,100878.88
2019-01-15T12:14:53.909Z,100876.20
2019-01-15T12:17:42.766Z,100873.03
2019-01-15T12:20:19.928Z,100872.94
2019-01-15T12:26:03.588Z,100879.84
2019-01-15T12:31:47.485Z,100873.27
2019-01-15T12:37:16.770Z,100877.47
2019-01-15T12:40:05.255Z,100865.81
2019-01-15T12:42:53.776Z,100860.95
2019-01-15T12:48:51.562Z,100860.56
2019-01-15T12:54:45.775Z,100833.97
2019-01-15T12:57:34.590Z,100830.27
2019-01-15T13:06:34.593Z,100820.31
2019-01-15T13:09:43.979Z,100813.83
2019-01-15T13:15:34.473Z,100807.52
2019-01-15T13:21:25.555Z,100806.84
2019-01-15T13:24:14.100Z,100803.70
2019-01-15T13:30:17.353Z,100801.96
2019-01-15T13:33:06.053Z,100801.47
2019-01-15T13:35:54.520Z,100803.97
2019-01-15T13:38:42.988Z,100794.09
2019-01-15T13:41:31.443Z,100800.44
2019-01-15T13:44:11.633Z,100796.88
2019-01-15T13:47:01.308Z,100791.06
2019-01-15T13:49:49.789Z,100801.40
2019-01-15T13:52:38.250Z,100787.69
2019-01-15T13:55:28.095Z,100797.06
2019-01-15T14:01:23.897Z,100796.50
2019-01-15T14:04:12.358Z,100800.63
2019-01-15T14:12:36.663Z,100796.50
2019-01-15T14:15:49.097Z,100802.23
2019-01-15T14:21:38.308Z,100794.41
2019-01-15T14:24:26.775Z,100798.70
2019-01-15T14:27:15.254Z,100798.59
2019-01-15T14:33:12.871Z,100801.94
2019-01-15T14:36:03.693Z,100802.03
2019-01-15T14:38:52.142Z,100803.76
2019-01-15T14:41:40.612Z,100801.84
2019-01-15T14:44:29.051Z,100793.98
2019-01-15T14:47:17.515Z,100794.89
2019-01-15T14:53:02.298Z,100788.84
2019-01-15T14:58:45.983Z,100793.98
2019-01-15T15:01:34.456Z,100798.41
2019-01-15T15:04:22.916Z,100803.67
2019-01-15T15:12:47.194Z,100803.59
2019-01-15T15:15:35.643Z,100792.38
2019-01-15T15:24:13.028Z,100793.91
2019-01-15T15:30:12.341Z,100797.62
2019-01-15T15:33:01.120Z,100781.85
2019-01-15T15:35:49.635Z,100786.61
2019-01-15T15:38:38.112Z,100790.17
2019-01-15T15:41:26.809Z,100783.55
2019-01-15T15:44:15.264Z,100777.16
2019-01-15T15:49:43.976Z,100776.49
2019-01-15T15:55:48.701Z,100780.41
2019-01-15T15:58:37.167Z,100777.72
2019-01-15T16:04:21.530Z,100779.83
2019-01-15T16:07:09.999Z,100762.22
2019-01-15T16:09:58.453Z,100776.11
2019-01-15T16:12:46.912Z,100774.16
2019-01-15T16:15:35.367Z,100776.84
2019-01-15T16:18:44.780Z,100765.19
2019-01-15T16:21:33.234Z,100773.34
2019-01-15T16:24:21.705Z,100767.98
2019-01-15T16:27:10.468Z,100754.58
2019-01-15T16:29:58.885Z,100768.44
2019-01-15T16:32:47.605Z,100763.08
2019-01-15T16:35:36.060Z,100767.98
2019-01-15T16:38:24.652Z,100764.99
2019-01-15T16:44:08.957Z,100761.95
2019-01-15T16:46:57.491Z,100757.05
2019-01-15T16:49:46.082Z,100767.61
2019-01-15T16:52:34.568Z,100752.09
2019-01-15T17:01:06.944Z,100772.48
2019-01-15T17:06:36.202Z,100765.78
2019-01-15T17:12:26.079Z,100773.73
2019-01-15T17:15:15.207Z,100767.60
2019-01-15T17:24:30.015Z,100768.30
2019-01-15T17:27:18.491Z,100766.27
2019-01-15T17:38:54.481Z,100774.78
2019-01-15T17:41:43.193Z,100767.62
2019-01-15T17:44:31.669Z,100771.03
2019-01-15T17:50:15.865Z,100769.23
2019-01-15T17:53:04.328Z,100770.08
2019-01-15T17:55:52.799Z,100766.83
2019-01-15T17:58:41.319Z,100770.47
2019-01-15T18:01:30.022Z,100771.63
2019-01-15T18:04:18.511Z,100768.94
2019-01-15T18:07:06.973Z,100769.72
2019-01-15T18:09:55.711Z,100762.41
2019-01-15T18:12:44.170Z,100763.29
2019-01-15T18:15:32.699Z,100759.07
2019-01-15T18:18:21.394Z,100768.38
2019-01-15T18:21:29.215Z,100768.84
2019-01-15T18:24:17.697Z,100762.32
2019-01-15T18:27:06.171Z,100776.61
2019-01-15T18:29:54.668Z,100772.67
2019-01-15T18:32:45.761Z,100772.88
2019-01-15T18:35:34.257Z,100779.20
2019-01-15T18:38:22.723Z,100776.25
2019-01-15T18:41:11.199Z,100777.11
2019-01-15T18:44:01.291Z,100772.99
2019-01-15T18:46:55.807Z,100771.66
2019-01-15T18:49:59.039Z,100779.48
2019-01-15T18:52:47.745Z,100774.41
2019-01-15T18:55:36.223Z,100782.83
2019-01-15T18:58:24.731Z,100770.78
2019-01-15T19:04:16.015Z,100785.72
2019-01-15T19:07:04.486Z,100774.13
2019-01-15T19:09:52.954Z,100777.97
2019-01-15T19:12:41.440Z,100775.86
2019-01-15T19:15:41.980Z,100777.77
2019-01-15T19:18:30.689Z,100762.86
2019-01-15T19:21:19.179Z,100768.22
2019-01-15T19:29:57.395Z,100773.46
2019-01-15T19:32:45.879Z,100750.72
2019-01-15T19:35:34.390Z,100759.13
2019-01-15T19:38:24.853Z,100767.05
2019-01-15T19:44:10.417Z,100774.91
2019-01-15T19:46:59.201Z,100776.70
2019-01-15T19:49:47.675Z,100774.98
2019-01-15T19:52:36.146Z,100767.93
2019-01-15T20:01:52.879Z,100776.81
2019-01-15T20:07:50.467Z,100778.25
2019-01-15T20:10:38.953Z,100777.09
2019-01-15T20:13:27.428Z,100781.03
2019-01-15T20:16:16.090Z,100778.15
2019-01-15T20:19:04.548Z,100779.77
2019-01-15T20:21:55.092Z,100792.20
2019-01-15T20:27:44.768Z,100791.46
2019-01-15T20:33:42.416Z,100790.30
2019-01-15T20:36:31.152Z,100795.19
2019-01-15T20:39:19.619Z,100789.06
2019-01-15T20:42:08.098Z,100794.31
2019-01-15T20:44:56.624Z,100803.22
2019-01-15T20:47:45.058Z,100794.03
2019-01-15T20:53:42.721Z,100811.05
2019-01-15T20:56:31.195Z,100808.27
2019-01-15T20:59:19.931Z,100803.40
2019-01-15T21:04:48.984Z,100809.03
2019-01-15T21:07:37.776Z,100809.25
2019-01-15T21:10:47.406Z,100807.59
2019-01-15T21:16:14.884Z,100820.98
2019-01-15T21:19:03.450Z,100806.19
2019-01-15T21:21:51.931Z,100807.52
2019-01-15T21:24:40.420Z,100814.50
2019-01-15T21:27:29.667Z,100809.42
2019-01-15T21:30:18.416Z,100802.34
2019-01-15T21:33:06.872Z,100806.74
2019-01-15T21:35:55.364Z,100804.56
2019-01-15T21:41:24.923Z,100806.64
2019-01-15T21:44:13.409Z,100811.53
2019-01-15T21:47:02.053Z,100810.09
2019-01-15T21:52:47.793Z,100817.34
2019-01-15T21:55:41.429Z,100814.11
2019-01-15T22:01:08.932Z,100811.53
2019-01-15T22:03:57.420Z,100816.89
2019-01-15T22:06:45.915Z,100811.99
2019-01-15T22:09:34.398Z,100807.23
2019-01-15T22:12:41.986Z,100815.16
2019-01-15T22:15:30.556Z,100816.61
2019-01-15T22:18:19.743Z,100820.03
2019-01-15T22:21:08.234Z,100805.69
2019-01-15T22:23:56.715Z,100817.66
2019-01-15T22:26:45.172Z,100807.80
2019-01-15T22:29:33.681Z,100809.03
2019-01-15T22:32:22.202Z,100809.42
2019-01-15T22:43:27.438Z,100788.59
2019-01-15T22:46:15.929Z,100800.42
2019-01-15T22:49:04.401Z,100792.50
2019-01-15T22:51:52.878Z,100796.52
2019-01-15T22:54:41.510Z,100790.20
2019-01-15T22:57:29.984Z,100786.76
2019-01-15T23:00:18.455Z,100788.87
2019-01-15T23:03:08.551Z,100792.78
2019-01-15T23:11:32.256Z,100787.14
2019-01-15T23:22:56.565Z,100783.23
2019-01-15T23:26:04.394Z,100780.94
2019-01-15T23:28:52.867Z,100774.14
2019-01-15T23:31:42.964Z,100772.23
2019-01-15T23:34:31.425Z,100758.63
2019-01-15T23:37:19.902Z,100762.92
2019-01-15T23:40:08.373Z,100760.35
2019-01-15T23:45:37.195Z,100752.20
2019-01-15T23:54:30.063Z,100756.91
2019-01-15T23:57:18.549Z,100756.80
